Hopkins, Minnesota
Current Conditions -  °F | °C
As of 8:53 PM on Sunday 21 Dec 2014 (Local Time) from KFCM Reporting Station
Light Rain Light Rain  
Wind Chill: 30°   Ceiling: 900
Heat Index: 38°   Visibility: 7mi
Dew Point: 36°   Wind: 14mph
Humidity: 93%   Direction: 180°S
Pressure: 29.71"   Gusts: NA
Location:  44.92°N, 93.41°W
Report Text: KFCM 220253Z AUTO 18012KT 7SM -RA OVC009 03/02 A2971 RMK AO2 RAB06 SLP068 P0000 60001 T00330022 58003
Loading
Personal Weather Stations






























Interactive Weather Map New forecast layout! Learn more

10-Day Weather Forecast

Advertisements
Track Severe Weather on mobile